createdAt,value
2022-08-11T21:00:39.008Z,36.92
2022-08-11T21:03:36.167Z,36.97
2022-08-11T21:06:31.446Z,37.06
2022-08-11T21:09:58.257Z,36.94
2022-08-11T21:12:35.657Z,37.06
2022-08-11T21:15:47.058Z,37.05
2022-08-11T21:18:36.237Z,37.16
2022-08-11T21:21:27.411Z,37.45
2022-08-11T21:24:17.375Z,37.50
2022-08-11T21:27:06.866Z,37.49
2022-08-11T21:29:58.171Z,37.52
2022-08-11T21:32:47.255Z,37.64
2022-08-11T21:35:36.718Z,37.61
2022-08-11T21:38:33.904Z,37.65
2022-08-11T21:41:24.171Z,37.55
2022-08-11T21:44:15.612Z,37.79
2022-08-11T21:47:05.701Z,37.98
2022-08-11T21:49:55.294Z,38.13
2022-08-11T21:52:44.600Z,38.05
2022-08-11T21:55:34.396Z,38.27
2022-08-11T21:58:23.185Z,38.59
2022-08-11T22:01:11.670Z,38.65
2022-08-11T22:04:01.621Z,38.55
2022-08-11T22:06:51.086Z,39.02
2022-08-11T22:09:39.606Z,38.89
2022-08-11T22:12:41.087Z,39.26
2022-08-11T22:15:33.481Z,39.07
2022-08-11T22:18:22.815Z,39.13
2022-08-11T22:21:14.587Z,39.15
2022-08-11T22:24:29.743Z,39.32
2022-08-11T22:27:18.643Z,39.41
2022-08-11T22:30:06.989Z,39.64
2022-08-11T22:32:57.137Z,39.65
2022-08-11T22:35:46.997Z,40.12
2022-08-11T22:38:36.033Z,39.87
2022-08-11T22:41:24.609Z,39.94
2022-08-11T22:44:13.036Z,40.02
2022-08-11T22:47:02.822Z,39.95
2022-08-11T22:49:57.754Z,40.19
2022-08-11T22:52:48.188Z,40.12
2022-08-11T22:55:38.467Z,40.20
2022-08-11T22:58:27.508Z,40.41
2022-08-11T23:01:16.724Z,40.44
2022-08-11T23:04:07.076Z,40.65
2022-08-11T23:06:57.215Z,40.75
2022-08-11T23:09:44.225Z,40.75
2022-08-11T23:12:33.607Z,40.75
2022-08-11T23:15:22.798Z,41.00
2022-08-11T23:18:11.550Z,41.02
2022-08-11T23:21:00.384Z,41.27
2022-08-11T23:23:49.905Z,41.17
2022-08-11T23:26:41.177Z,41.49
2022-08-11T23:29:31.130Z,41.44
2022-08-11T23:32:22.555Z,41.69
2022-08-11T23:35:38.356Z,41.70
2022-08-11T23:38:23.817Z,41.55
2022-08-11T23:41:12.970Z,41.81
2022-08-11T23:44:02.967Z,41.83
2022-08-11T23:46:52.107Z,42.04
2022-08-11T23:49:40.894Z,41.91
2022-08-11T23:52:31.396Z,42.01
2022-08-11T23:55:20.361Z,41.97
2022-08-11T23:58:09.315Z,42.35
